Time;durP1;ratioP1;P1;durP2;ratioP2;P2;SDS_P1;SDS_P2;PMS_P1;PMS_P2;Temp;Humidity;BMP_temperature;BMP_pressure;BME280_temperature;BME280_humidity;BME280_pressure;Samples;Min_cycle;Max_cycle;Signal;HPM_P1;HPM_P2
2023/07/22 00:00:58;;;;;;;7.47;6.68;;;18.70;56.90;;;;;;5045893;28;20041;-52
2023/07/22 00:03:25;;;;;;;7.35;6.53;;;18.70;56.80;;;;;;5032634;28;20049;-54
2023/07/22 00:06:05;;;;;;;7.93;6.45;;;18.70;56.50;;;;;;5031209;28;20049;-52
2023/07/22 00:08:36;;;;;;;6.18;5.35;;;18.70;56.60;;;;;;5043118;28;20344;-54
2023/07/22 00:11:04;;;;;;;7.35;6.65;;;18.80;56.20;;;;;;5035716;28;20104;-52
2023/07/22 00:13:32;;;;;;;7.63;5.57;;;18.70;55.90;;;;;;5031238;28;20116;-51
2023/07/22 00:15:59;;;;;;;7.80;5.95;;;18.70;56.00;;;;;;5031250;28;20156;-50
2023/07/22 00:18:31;;;;;;;7.10;6.40;;;18.70;55.90;;;;;;5043989;28;20103;-54
2023/07/22 00:20:57;;;;;;;9.02;6.10;;;18.70;55.80;;;;;;5036924;28;20060;-54
2023/07/22 00:23:27;;;;;;;6.88;5.72;;;18.70;55.70;;;;;;5031528;28;20056;-54
2023/07/22 00:25:58;;;;;;;7.55;6.18;;;18.70;55.40;;;;;;5037258;28;20557;-50
2023/07/22 00:28:25;;;;;;;6.50;5.75;;;18.70;55.40;;;;;;5033901;28;20052;-54
2023/07/22 00:30:54;;;;;;;5.85;5.28;;;18.70;55.40;;;;;;5043773;28;20125;-53
2023/07/22 00:33:21;;;;;;;6.72;5.97;;;18.70;55.40;;;;;;5048536;28;20124;-51
2023/07/22 00:35:51;;;;;;;7.45;5.15;;;18.70;55.40;;;;;;5030045;28;20060;-52
2023/07/22 00:38:19;;;;;;;8.27;6.20;;;18.70;55.60;;;;;;5024620;28;20050;-53
2023/07/22 00:40:48;;;;;;;8.27;5.40;;;18.70;55.30;;;;;;5035296;28;20053;-50
2023/07/22 00:43:16;;;;;;;7.72;6.15;;;18.70;55.20;;;;;;5031461;28;20045;-50
2023/07/22 00:45:43;;;;;;;8.15;5.85;;;18.70;55.00;;;;;;5029931;28;20103;-53
2023/07/22 00:48:13;;;;;;;6.55;5.85;;;18.80;55.00;;;;;;5032714;28;20041;-50
2023/07/22 00:50:40;;;;;;;6.68;5.70;;;18.70;54.60;;;;;;5042443;28;20107;-49
2023/07/22 00:53:11;;;;;;;7.82;6.00;;;18.70;54.50;;;;;;5028339;28;20063;-53
2023/07/22 00:55:40;;;;;;;5.68;5.13;;;18.70;54.60;;;;;;5028324;28;20136;-49
2023/07/22 00:58:12;;;;;;;6.95;6.07;;;18.80;54.40;;;;;;5028441;28;20852;-52
2023/07/22 01:00:40;;;;;;;7.32;5.32;;;18.70;54.50;;;;;;5041288;28;20124;-51
2023/07/22 01:03:09;;;;;;;6.47;5.00;;;18.70;54.30;;;;;;5036466;28;20049;-51
2023/07/22 01:05:39;;;;;;;6.33;5.67;;;18.70;54.40;;;;;;5013721;28;20052;-49
2023/07/22 01:08:08;;;;;;;7.05;5.65;;;18.70;54.20;;;;;;5032625;28;20334;-52
2023/07/22 01:10:38;;;;;;;7.00;5.50;;;18.70;54.10;;;;;;5037705;28;20056;-49
2023/07/22 01:13:08;;;;;;;7.30;5.35;;;18.60;53.80;;;;;;5027376;28;20072;-52
2023/07/22 01:15:37;;;;;;;6.30;5.53;;;18.60;54.00;;;;;;5031548;28;20501;-54
2023/07/22 01:18:04;;;;;;;6.97;5.20;;;18.50;54.00;;;;;;5046951;28;20114;-51
2023/07/22 01:20:34;;;;;;;7.45;5.07;;;18.60;53.90;;;;;;5038384;28;20136;-49
2023/07/22 01:23:01;;;;;;;5.63;5.10;;;18.50;54.50;;;;;;5022257;28;20049;-52
2023/07/22 01:25:31;;;;;;;6.32;4.93;;;18.50;53.90;;;;;;5033595;28;20046;-51
2023/07/22 01:28:00;;;;;;;8.02;5.45;;;18.50;53.90;;;;;;5032914;28;20128;-53
2023/07/22 01:30:28;;;;;;;5.50;5.00;;;18.50;54.00;;;;;;5023542;28;20065;-52
2023/07/22 01:33:04;;;;;;;7.15;5.13;;;18.50;54.10;;;;;;5030493;28;20056;-53
2023/07/22 01:35:38;;;;;;;8.23;5.50;;;18.40;53.90;;;;;;5035602;28;20025;-52
2023/07/22 01:38:04;;;;;;;7.57;5.30;;;18.40;53.70;;;;;;5031917;28;20048;-53
2023/07/22 01:40:33;;;;;;;5.15;4.63;;;18.40;53.60;;;;;;5038033;28;20056;-50
2023/07/22 01:43:01;;;;;;;6.80;5.15;;;18.40;53.60;;;;;;5031666;28;20656;-54
2023/07/22 01:45:30;;;;;;;5.47;4.93;;;18.40;53.60;;;;;;5028530;28;20153;-50
2023/07/22 01:47:57;;;;;;;7.45;5.78;;;18.40;53.60;;;;;;5033546;28;20038;-54
2023/07/22 01:50:24;;;;;;;6.60;5.13;;;18.30;53.60;;;;;;5042262;28;20079;-53
2023/07/22 01:52:51;;;;;;;7.38;4.65;;;18.30;53.80;;;;;;5036279;28;20049;-53
2023/07/22 01:55:22;;;;;;;6.72;5.38;;;18.30;53.80;;;;;;5027910;28;20044;-53
2023/07/22 01:57:56;;;;;;;7.13;4.97;;;18.30;53.80;;;;;;5032530;28;20052;-53
2023/07/22 02:00:23;;;;;;;7.07;5.30;;;18.20;53.80;;;;;;5043048;28;20049;-51
2023/07/22 02:02:51;;;;;;;6.10;5.38;;;18.20;53.90;;;;;;5030468;28;20449;-52
2023/07/22 02:05:20;;;;;;;7.38;5.03;;;18.20;54.00;;;;;;5035480;28;20125;-52
2023/07/22 02:07:56;;;;;;;6.80;4.43;;;18.20;54.00;;;;;;5039181;28;20127;-51
2023/07/22 02:10:25;;;;;;;5.75;4.70;;;18.20;54.00;;;;;;5033604;28;20411;-53
2023/07/22 02:12:52;;;;;;;7.25;5.30;;;18.10;54.10;;;;;;5046731;28;20087;-54
2023/07/22 02:15:24;;;;;;;7.03;5.13;;;18.10;54.10;;;;;;5034104;28;20492;-53
2023/07/22 02:17:51;;;;;;;5.43;4.60;;;18.10;54.20;;;;;;5038952;28;20118;-50
2023/07/22 02:20:21;;;;;;;6.95;5.00;;;18.10;54.10;;;;;;5028431;28;20045;-51
2023/07/22 02:22:50;;;;;;;6.65;4.97;;;18.00;54.00;;;;;;5037991;28;20041;-53
2023/07/22 02:25:16;;;;;;;5.30;4.30;;;18.00;54.20;;;;;;5037126;28;20091;-50
2023/07/22 02:27:48;;;;;;;6.15;5.10;;;18.00;54.50;;;;;;5030760;28;20044;-51
2023/07/22 02:30:16;;;;;;;8.38;5.50;;;18.00;54.60;;;;;;5028269;28;20660;-54
2023/07/22 02:32:45;;;;;;;7.28;6.22;;;17.90;54.60;;;;;;5042073;28;20037;-53
2023/07/22 02:35:17;;;;;;;6.30;5.05;;;17.90;54.70;;;;;;5037105;28;20406;-49
2023/07/22 02:37:43;;;;;;;7.03;5.95;;;17.90;54.90;;;;;;5043779;28;20124;-51
2023/07/22 02:40:11;;;;;;;8.48;5.60;;;17.90;54.70;;;;;;5035744;28;20403;-54
2023/07/22 02:42:40;;;;;;;7.07;5.43;;;17.80;54.70;;;;;;5019961;28;20041;-54
2023/07/22 02:45:15;;;;;;;6.93;5.15;;;17.80;54.70;;;;;;5035599;28;20040;-52
2023/07/22 02:47:42;;;;;;;6.20;5.57;;;17.80;54.70;;;;;;5040642;28;20128;-54
2023/07/22 02:50:11;;;;;;;5.68;4.95;;;17.80;54.80;;;;;;5040679;28;20036;-51
2023/07/22 02:52:45;;;;;;;6.10;5.50;;;17.80;54.80;;;;;;5032510;28;20128;-54
2023/07/22 02:55:23;;;;;;;8.30;5.65;;;17.80;54.80;;;;;;5030779;28;20041;-51
2023/07/22 02:57:50;;;;;;;6.13;5.05;;;17.80;55.10;;;;;;5042261;28;20045;-50
2023/07/22 03:00:25;;;;;;;7.25;6.55;;;17.80;55.00;;;;;;5043364;28;20045;-54
2023/07/22 03:02:53;;;;;;;6.75;5.43;;;17.80;55.40;;;;;;5038669;28;20041;-54
2023/07/22 03:05:25;;;;;;;6.20;5.00;;;17.80;55.10;;;;;;5037086;28;20041;-49
2023/07/22 03:07:53;;;;;;;6.55;5.60;;;17.80;55.20;;;;;;5031595;28;20133;-54
2023/07/22 03:10:20;;;;;;;7.03;5.47;;;17.80;55.20;;;;;;5049427;28;20037;-53
2023/07/22 03:12:47;;;;;;;8.57;5.28;;;17.80;55.20;;;;;;5038966;28;20041;-53
2023/07/22 03:15:18;;;;;;;8.13;5.57;;;17.80;55.10;;;;;;5037492;28;20095;-54
2023/07/22 03:17:45;;;;;;;7.55;6.25;;;17.80;55.20;;;;;;5041953;28;20060;-53
2023/07/22 03:20:16;;;;;;;7.13;5.38;;;17.80;55.10;;;;;;5033920;28;20056;-50
2023/07/22 03:22:46;;;;;;;6.68;4.97;;;17.80;55.30;;;;;;5021949;28;20037;-49
2023/07/22 03:25:16;;;;;;;7.30;5.20;;;17.80;55.30;;;;;;5024782;28;20135;-53
2023/07/22 03:27:44;;;;;;;7.00;4.97;;;17.90;55.70;;;;;;5040800;28;20061;-52
2023/07/22 03:30:18;;;;;;;6.78;5.18;;;17.80;55.60;;;;;;5025937;28;20044;-53
2023/07/22 03:32:47;;;;;;;5.88;5.28;;;17.80;55.50;;;;;;5038141;28;20033;-53
2023/07/22 03:35:17;;;;;;;5.97;4.90;;;17.80;55.50;;;;;;5030739;28;20403;-52
2023/07/22 03:37:45;;;;;;;12.85;5.78;;;17.90;55.80;;;;;;5039314;28;20046;-51
2023/07/22 03:40:22;;;;;;;7.15;5.60;;;17.90;55.80;;;;;;5040805;28;20518;-53
2023/07/22 03:42:54;;;;;;;7.05;5.70;;;17.90;55.60;;;;;;5019955;28;20122;-54
2023/07/22 03:45:22;;;;;;;8.38;5.95;;;18.00;55.50;;;;;;5038645;28;20068;-50
2023/07/22 03:47:59;;;;;;;8.98;5.50;;;18.00;55.50;;;;;;5030229;28;20041;-53
2023/07/22 03:50:27;;;;;;;8.05;5.50;;;18.00;55.80;;;;;;5040879;28;20520;-50
2023/07/22 03:52:58;;;;;;;6.13;5.30;;;17.90;55.50;;;;;;5033091;28;20132;-54
2023/07/22 03:55:25;;;;;;;7.97;6.35;;;18.00;55.40;;;;;;5034431;28;20061;-54
2023/07/22 03:57:52;;;;;;;6.97;5.07;;;18.00;55.30;;;;;;5043993;28;20051;-53
2023/07/22 04:00:21;;;;;;;9.07;7.10;;;18.00;55.40;;;;;;5041456;28;20044;-52
2023/07/22 04:02:50;;;;;;;7.68;5.63;;;18.00;55.30;;;;;;5040288;28;20144;-51
2023/07/22 04:05:16;;;;;;;8.32;6.03;;;18.00;55.30;;;;;;5037803;28;20045;-50
2023/07/22 04:07:45;;;;;;;6.60;5.57;;;18.00;55.30;;;;;;5041353;28;20041;-52
2023/07/22 04:10:11;;;;;;;7.63;6.38;;;17.90;55.30;;;;;;5042777;28;20526;-54
2023/07/22 04:12:43;;;;;;;6.50;5.57;;;18.00;55.40;;;;;;5020262;28;20084;-54
2023/07/22 04:15:10;;;;;;;6.40;5.53;;;18.00;55.50;;;;;;5043660;28;20119;-53
2023/07/22 04:17:36;;;;;;;7.47;5.30;;;18.00;55.50;;;;;;5050178;28;20267;-52
2023/07/22 04:20:04;;;;;;;6.03;5.18;;;18.00;55.40;;;;;;5038899;28;20037;-52
2023/07/22 04:22:31;;;;;;;7.68;6.30;;;18.00;55.50;;;;;;5039605;28;20053;-50
2023/07/22 04:25:00;;;;;;;7.10;5.95;;;18.00;55.60;;;;;;5038536;28;20061;-53
2023/07/22 04:27:27;;;;;;;6.55;5.53;;;18.00;55.60;;;;;;5049806;28;20041;-54
2023/07/22 04:29:54;;;;;;;6.00;5.18;;;18.00;55.60;;;;;;5042736;28;20041;-50
2023/07/22 04:32:22;;;;;;;7.38;5.55;;;18.00;55.70;;;;;;5039377;28;20124;-50
2023/07/22 04:34:54;;;;;;;7.47;5.75;;;18.00;55.50;;;;;;5040142;28;20045;-54
2023/07/22 04:37:27;;;;;;;6.35;5.55;;;18.00;55.50;;;;;;5033542;28;20037;-51
2023/07/22 04:39:54;;;;;;;5.68;5.05;;;18.00;55.70;;;;;;5042122;28;20051;-51
2023/07/22 04:42:21;;;;;;;7.55;5.80;;;18.00;55.60;;;;;;5040323;28;20042;-50
2023/07/22 04:44:48;;;;;;;8.70;5.47;;;18.00;55.60;;;;;;5044940;28;20132;-51
2023/07/22 04:47:17;;;;;;;7.30;5.78;;;18.00;55.60;;;;;;5047104;28;20453;-49
2023/07/22 04:49:49;;;;;;;7.57;5.68;;;18.10;55.70;;;;;;5041158;28;20116;-52
2023/07/22 04:52:17;;;;;;;6.43;4.70;;;18.10;55.60;;;;;;5045613;28;20099;-49
2023/07/22 04:54:47;;;;;;;6.50;5.22;;;18.10;55.80;;;;;;5032961;28;20038;-54
2023/07/22 04:57:16;;;;;;;7.65;5.63;;;18.10;55.80;;;;;;5030800;28;20091;-51
2023/07/22 04:59:45;;;;;;;6.00;5.22;;;18.10;55.90;;;;;;5040446;28;20036;-54
2023/07/22 05:02:17;;;;;;;7.72;5.78;;;18.10;55.80;;;;;;5039674;28;20094;-54
2023/07/22 05:04:43;;;;;;;6.70;5.70;;;18.10;55.80;;;;;;5031893;28;20056;-49
2023/07/22 05:07:14;;;;;;;7.93;5.90;;;18.10;55.80;;;;;;5040439;28;20033;-54
2023/07/22 05:09:51;;;;;;;5.88;5.28;;;18.10;55.80;;;;;;5046913;28;20033;-51
2023/07/22 05:12:24;;;;;;;7.15;5.68;;;18.10;55.70;;;;;;5043808;28;20044;-54
2023/07/22 05:14:52;;;;;;;;;;;18.10;55.80;;;;;;5041198;28;20045;-53
2023/07/22 05:17:20;;;;;;;7.53;5.70;;;18.20;55.70;;;;;;5042436;28;19925;-53
2023/07/22 05:19:52;;;;;;;7.50;5.32;;;18.10;55.40;;;;;;5042537;28;20542;-54
2023/07/22 05:22:18;;;;;;;8.45;6.50;;;18.10;55.50;;;;;;5040280;28;20472;-52
2023/07/22 05:24:46;;;;;;;9.38;6.65;;;18.10;55.50;;;;;;5040365;28;20050;-53
2023/07/22 05:27:15;;;;;;;8.25;6.05;;;18.10;55.80;;;;;;5041636;28;20553;-52
2023/07/22 05:29:44;;;;;;;7.88;6.65;;;18.10;55.90;;;;;;5044358;28;20041;-50
2023/07/22 05:32:11;;;;;;;8.25;6.65;;;18.10;55.90;;;;;;5039538;28;20033;-54
2023/07/22 05:34:58;;;;;;;9.27;5.97;;;18.10;55.90;;;;;;5038732;28;20045;-53
2023/07/22 05:37:25;;;;;;;9.48;5.72;;;18.20;56.10;;;;;;5040568;28;20464;-52
2023/07/22 05:39:51;;;;;;;8.43;6.78;;;18.20;56.20;;;;;;5042583;28;20643;-51
2023/07/22 05:42:20;;;;;;;7.55;6.40;;;18.20;56.20;;;;;;5039930;28;20503;-56
2023/07/22 05:44:48;;;;;;;9.82;6.60;;;18.30;56.20;;;;;;5040822;28;20048;-54
2023/07/22 05:47:14;;;;;;;7.85;5.95;;;18.30;56.30;;;;;;5039794;28;20663;-53
2023/07/22 05:49:44;;;;;;;10.80;7.70;;;18.30;56.20;;;;;;5042465;28;20065;-55
2023/07/22 05:52:17;;;;;;;8.75;6.10;;;18.40;56.20;;;;;;5045602;28;20083;-56
2023/07/22 05:54:44;;;;;;;9.05;7.10;;;18.40;56.10;;;;;;5032858;28;20145;-54
2023/07/22 05:57:10;;;;;;;10.32;6.38;;;18.50;56.20;;;;;;5036284;28;20052;-52
2023/07/22 05:59:37;;;;;;;8.50;6.88;;;18.50;56.20;;;;;;5040079;28;20102;-51
2023/07/22 06:02:10;;;;;;;9.95;6.85;;;18.50;56.50;;;;;;5041478;28;20055;-55
2023/07/22 06:04:38;;;;;;;8.40;6.30;;;18.60;56.60;;;;;;5044124;28;20124;-54
2023/07/22 06:07:05;;;;;;;8.48;6.80;;;18.60;56.50;;;;;;5038268;28;20149;-54
2023/07/22 06:09:31;;;;;;;7.60;5.80;;;18.70;56.40;;;;;;5028459;28;20124;-55
2023/07/22 06:11:58;;;;;;;8.93;7.45;;;18.70;56.40;;;;;;5034360;28;20044;-52
2023/07/22 06:14:27;;;;;;;8.73;6.20;;;18.80;56.40;;;;;;5034207;28;20045;-52
2023/07/22 06:16:59;;;;;;;12.60;7.22;;;18.90;56.40;;;;;;5041433;28;20403;-56
2023/07/22 06:19:26;;;;;;;10.75;6.50;;;18.90;56.40;;;;;;5045549;28;20123;-55
2023/07/22 06:21:55;;;;;;;10.23;7.28;;;19.00;56.30;;;;;;5035160;28;20048;-55
2023/07/22 06:24:25;;;;;;;9.38;6.35;;;19.00;56.20;;;;;;5041333;28;20124;-55
2023/07/22 06:26:57;;;;;;;7.93;6.20;;;19.10;56.20;;;;;;5042033;28;20099;-52
2023/07/22 06:29:28;;;;;;;9.35;6.72;;;19.10;56.20;;;;;;5042822;28;20477;-56
2023/07/22 06:31:55;;;;;;;9.75;6.55;;;19.20;56.30;;;;;;5031535;28;20913;-56
2023/07/22 06:34:22;;;;;;;12.50;6.50;;;19.20;56.20;;;;;;5042553;28;20087;-55
2023/07/22 06:36:48;;;;;;;8.98;6.97;;;19.20;56.40;;;;;;5042792;28;20122;-56
2023/07/22 06:39:15;;;;;;;11.43;6.90;;;19.30;56.30;;;;;;5037964;28;20430;-56
2023/07/22 06:41:42;;;;;;;11.75;7.28;;;19.30;56.20;;;;;;5042678;28;20384;-56
2023/07/22 06:44:08;;;;;;;12.38;6.22;;;19.40;56.20;;;;;;5041584;28;20071;-54
2023/07/22 06:46:35;;;;;;;8.05;5.72;;;19.40;56.40;;;;;;5043010;28;20037;-55
2023/07/22 06:49:02;;;;;;;7.88;6.47;;;19.50;56.40;;;;;;5047432;28;20392;-54
2023/07/22 06:51:29;;;;;;;9.05;6.95;;;19.50;56.70;;;;;;5045063;28;20045;-56
2023/07/22 06:53:56;;;;;;;10.68;7.07;;;19.60;56.60;;;;;;5048512;28;20110;-56
2023/07/22 06:56:22;;;;;;;9.27;7.30;;;19.60;56.50;;;;;;5042573;28;20113;-57
2023/07/22 06:58:50;;;;;;;8.05;6.15;;;19.70;56.60;;;;;;5041160;28;20445;-55
2023/07/22 07:01:17;;;;;;;8.60;7.18;;;19.80;56.60;;;;;;5042432;28;20056;-57
2023/07/22 07:03:44;;;;;;;8.40;6.38;;;19.90;56.60;;;;;;5043640;28;20041;-56
2023/07/22 07:06:11;;;;;;;6.88;6.13;;;20.00;56.50;;;;;;5042807;28;20124;-55
2023/07/22 07:08:39;;;;;;;10.38;7.22;;;20.10;56.40;;;;;;5030589;28;20098;-56
2023/07/22 07:11:06;;;;;;;9.65;6.55;;;20.10;56.60;;;;;;5035465;28;20126;-57
2023/07/22 07:13:33;;;;;;;9.23;7.53;;;20.20;56.10;;;;;;5038519;28;20705;-56
2023/07/22 07:16:22;;;;;;;10.32;7.22;;;20.20;55.80;;;;;;5045661;28;20033;-57
2023/07/22 07:18:49;;;;;;;9.77;6.90;;;20.40;56.00;;;;;;5043029;28;20482;-56
2023/07/22 07:21:16;;;;;;;8.77;7.68;;;20.40;55.60;;;;;;5045950;28;20095;-57
2023/07/22 07:23:42;;;;;;;9.20;7.03;;;20.40;56.10;;;;;;5225393;22;20079;-50
2023/07/22 07:26:09;;;;;;;7.97;6.35;;;20.50;55.80;;;;;;5062126;28;20049;-52
2023/07/22 07:28:39;;;;;;;8.52;6.15;;;20.50;56.10;;;;;;5049300;28;20044;-51
2023/07/22 07:31:06;;;;;;;9.57;6.72;;;20.60;55.90;;;;;;5065711;28;20717;-53
2023/07/22 07:33:33;;;;;;;8.25;5.95;;;20.60;55.80;;;;;;5047314;28;20075;-51
2023/07/22 07:36:01;;;;;;;12.73;7.10;;;20.70;55.80;;;;;;5047976;28;20130;-52
2023/07/22 07:38:33;;;;;;;8.80;6.85;;;20.80;55.80;;;;;;5048390;28;20052;-52
2023/07/22 07:41:11;;;;;;;9.07;6.78;;;20.80;55.80;;;;;;5060225;28;20418;-51
2023/07/22 07:43:39;;;;;;;8.23;7.10;;;20.90;55.70;;;;;;5068081;28;20048;-49
2023/07/22 07:46:29;;;;;;;7.57;5.43;;;20.90;55.90;;;;;;5066341;28;20036;-54
2023/07/22 07:49:03;;;;;;;8.20;5.93;;;21.00;55.40;;;;;;5045815;28;20069;-52
2023/07/22 07:51:32;;;;;;;7.05;5.53;;;21.10;55.40;;;;;;5065950;28;20043;-53
2023/07/22 07:53:59;;;;;;;10.20;5.93;;;21.10;55.00;;;;;;5067707;28;20037;-52
2023/07/22 07:56:28;;;;;;;8.93;6.15;;;21.10;54.90;;;;;;5049499;28;20037;-54
2023/07/22 07:58:55;;;;;;;7.88;5.93;;;21.20;55.30;;;;;;5066677;28;20069;-53
2023/07/22 08:01:25;;;;;;;6.72;4.95;;;21.20;55.40;;;;;;5068261;28;20064;-53
2023/07/22 08:03:52;;;;;;;5.97;5.35;;;21.20;54.90;;;;;;5064649;28;20049;-52
2023/07/22 08:06:18;;;;;;;6.55;5.32;;;21.30;54.80;;;;;;5065561;28;20123;-53
2023/07/22 08:08:48;;;;;;;6.78;4.82;;;21.30;54.60;;;;;;5067760;28;20617;-53
2023/07/22 08:11:16;;;;;;;7.57;5.53;;;21.30;54.80;;;;;;5050388;28;20063;-53
2023/07/22 08:13:44;;;;;;;8.07;5.28;;;21.40;55.10;;;;;;5053183;28;20506;-52
2023/07/22 08:16:12;;;;;;;7.03;5.00;;;21.40;55.40;;;;;;5065912;28;20508;-53
2023/07/22 08:18:39;;;;;;;5.85;4.72;;;21.50;55.40;;;;;;5056399;28;20055;-53
2023/07/22 08:21:07;;;;;;;6.10;4.68;;;21.60;54.90;;;;;;5061580;28;20124;-52
2023/07/22 08:23:35;;;;;;;6.22;4.82;;;21.70;55.10;;;;;;5056108;28;20447;-52
2023/07/22 08:26:05;;;;;;;6.30;4.35;;;21.80;54.20;;;;;;5065875;28;20094;-53
2023/07/22 08:28:32;;;;;;;6.65;4.63;;;21.80;53.60;;;;;;5048434;28;20615;-53
2023/07/22 08:31:02;;;;;;;5.95;5.32;;;21.80;53.50;;;;;;5067628;28;20098;-52
2023/07/22 08:33:29;;;;;;;5.50;4.35;;;21.90;53.70;;;;;;5066755;28;20037;-54
2023/07/22 08:36:08;;;;;;;5.38;4.25;;;22.00;53.20;;;;;;5068532;28;20036;-53
2023/07/22 08:38:35;;;;;;;4.93;3.72;;;22.00;53.00;;;;;;5063651;28;20102;-54
2023/07/22 08:41:02;;;;;;;4.68;3.97;;;22.10;53.00;;;;;;5060098;28;20041;-54
2023/07/22 08:43:30;;;;;;;6.07;4.30;;;22.20;52.30;;;;;;5065613;28;20043;-54
2023/07/22 08:46:01;;;;;;;4.97;4.30;;;22.20;52.80;;;;;;5067971;28;20044;-54
2023/07/22 08:48:32;;;;;;;4.28;3.60;;;22.30;52.10;;;;;;5061617;28;20517;-53
2023/07/22 08:51:17;;;;;;;6.53;4.03;;;22.40;51.70;;;;;;5067253;28;20465;-54
2023/07/22 08:53:46;;;;;;;5.15;3.30;;;22.50;51.60;;;;;;5065127;28;20823;-53
2023/07/22 08:56:26;;;;;;;;;;;22.60;51.40;;;;;;5063949;28;20055;-54
2023/07/22 08:58:54;;;;;;;5.85;3.70;;;22.60;52.00;;;;;;5063040;28;19959;-52
2023/07/22 09:01:23;;;;;;;4.93;3.58;;;22.70;51.80;;;;;;5067028;28;20044;-54
2023/07/22 09:03:52;;;;;;;6.90;4.03;;;22.80;51.20;;;;;;5068071;28;20052;-54
2023/07/22 09:06:19;;;;;;;4.97;3.45;;;22.90;51.20;;;;;;5062277;28;20512;-54
2023/07/22 09:08:46;;;;;;;5.07;3.67;;;23.00;51.00;;;;;;5065668;28;20068;-54
2023/07/22 09:11:14;;;;;;;4.22;3.55;;;23.00;50.70;;;;;;5066457;28;20097;-53
2023/07/22 09:13:44;;;;;;;4.20;3.60;;;23.10;50.80;;;;;;5063576;28;20045;-54
2023/07/22 09:16:12;;;;;;;5.40;3.17;;;23.20;49.80;;;;;;5068888;28;20082;-51
2023/07/22 09:18:39;;;;;;;5.97;2.95;;;23.20;49.40;;;;;;5061912;28;20115;-53
2023/07/22 09:21:06;;;;;;;3.10;2.78;;;23.30;49.40;;;;;;5068708;28;20101;-53
2023/07/22 09:23:37;;;;;;;3.92;2.80;;;23.30;48.90;;;;;;5063494;28;20036;-54
2023/07/22 09:26:11;;;;;;;2.97;2.67;;;23.30;49.00;;;;;;5064401;28;20040;-53
2023/07/22 09:28:56;;;;;;;2.47;2.28;;;23.40;49.00;;;;;;5063826;28;20045;-53
2023/07/22 09:31:24;;;;;;;2.58;2.38;;;23.40;48.40;;;;;;5064903;28;20465;-54
2023/07/22 09:33:54;;;;;;;6.07;3.17;;;23.40;49.00;;;;;;5050677;28;20048;-54
2023/07/22 09:36:21;;;;;;;3.10;2.72;;;23.40;49.20;;;;;;5050585;28;20046;-54
2023/07/22 09:39:14;;;;;;;3.65;2.42;;;23.40;48.80;;;;;;5065616;28;20045;-54
2023/07/22 09:41:42;;;;;;;3.90;2.58;;;23.40;48.60;;;;;;5059586;28;20060;-54
2023/07/22 09:44:12;;;;;;;3.97;2.78;;;23.30;48.50;;;;;;5068612;28;20040;-53
2023/07/22 09:46:38;;;;;;;6.80;2.85;;;23.20;48.40;;;;;;5066627;28;20094;-53
2023/07/22 09:49:08;;;;;;;4.68;2.88;;;23.10;48.80;;;;;;5067684;28;20497;-54
2023/07/22 09:51:37;;;;;;;4.00;3.00;;;23.10;49.40;;;;;;5050520;28;20040;-54
2023/07/22 09:54:22;;;;;;;3.97;3.03;;;23.10;49.50;;;;;;5066283;28;20568;-53
2023/07/22 09:56:49;;;;;;;2.95;2.40;;;23.10;49.90;;;;;;5063107;28;20106;-54
2023/07/22 09:59:19;;;;;;;4.00;2.45;;;23.10;50.10;;;;;;5054322;28;20037;-52
2023/07/22 10:01:47;;;;;;;3.55;2.67;;;23.10;50.30;;;;;;5069718;28;20102;-53
2023/07/22 10:04:16;;;;;;;2.60;2.17;;;23.10;49.50;;;;;;5061632;28;20044;-52
2023/07/22 10:06:43;;;;;;;3.35;2.58;;;23.10;49.10;;;;;;5059800;28;20041;-55
2023/07/22 10:09:12;;;;;;;3.72;2.22;;;23.10;48.80;;;;;;5062262;28;20059;-53
2023/07/22 10:11:40;;;;;;;2.75;2.22;;;23.10;48.40;;;;;;5053296;28;20045;-53
2023/07/22 10:14:06;;;;;;;1.77;1.67;;;23.10;48.50;;;;;;5049736;28;20509;-53
2023/07/22 10:16:35;;;;;;;3.33;1.52;;;23.10;48.80;;;;;;5040035;28;20502;-54
2023/07/22 10:19:06;;;;;;;2.13;1.55;;;23.20;48.10;;;;;;5059632;28;20075;-54
2023/07/22 10:21:35;;;;;;;2.28;1.58;;;23.20;48.30;;;;;;5066539;28;20059;-54
2023/07/22 10:24:03;;;;;;;2.40;2.20;;;23.20;49.00;;;;;;5066166;28;20473;-51
2023/07/22 10:26:32;;;;;;;2.33;1.90;;;23.30;48.00;;;;;;5067782;28;20037;-54
2023/07/22 10:29:08;;;;;;;1.65;1.55;;;23.30;48.10;;;;;;5053347;28;20032;-54
2023/07/22 10:31:37;;;;;;;2.35;1.38;;;23.40;47.40;;;;;;5068483;28;20041;-50
2023/07/22 10:34:05;;;;;;;2.22;2.00;;;23.40;47.40;;;;;;5061599;28;20060;-52
2023/07/22 10:36:31;;;;;;;2.33;1.85;;;23.60;47.40;;;;;;5044157;28;20553;-53
2023/07/22 10:38:59;;;;;;;1.80;1.60;;;23.70;46.80;;;;;;5063063;28;20422;-54
2023/07/22 10:41:30;;;;;;;2.30;2.00;;;23.80;46.70;;;;;;5061281;28;20098;-53
2023/07/22 10:43:59;;;;;;;4.32;1.92;;;23.90;47.00;;;;;;5061012;28;20051;-53
2023/07/22 10:46:43;;;;;;;1.90;1.73;;;24.00;46.20;;;;;;5060555;28;20040;-52
2023/07/22 10:49:15;;;;;;;1.92;1.40;;;24.20;46.40;;;;;;5053215;28;20045;-54
2023/07/22 10:51:50;;;;;;;2.35;1.58;;;24.30;45.50;;;;;;5042751;28;20041;-54
2023/07/22 10:54:36;;;;;;;1.60;1.50;;;24.30;44.80;;;;;;5040228;28;20576;-53
2023/07/22 10:57:25;;;;;;;2.42;1.83;;;24.40;44.70;;;;;;5058968;28;20041;-55
2023/07/22 10:59:52;;;;;;;2.65;1.90;;;24.30;44.80;;;;;;5060463;28;20052;-51
2023/07/22 11:02:26;;;;;;;2.15;1.63;;;24.30;44.60;;;;;;5063804;28;20048;-53
2023/07/22 11:04:57;;;;;;;2.55;1.85;;;24.30;44.70;;;;;;5056627;28;20119;-54
2023/07/22 11:07:42;;;;;;;2.05;1.88;;;24.30;45.20;;;;;;5056698;28;20059;-54
2023/07/22 11:10:18;;;;;;;2.60;1.80;;;24.40;44.90;;;;;;5060213;28;20473;-54
2023/07/22 11:12:46;;;;;;;2.90;2.20;;;24.40;45.00;;;;;;5050693;28;20058;-54
2023/07/22 11:15:16;;;;;;;2.78;2.30;;;24.50;45.20;;;;;;5061925;28;20098;-53
2023/07/22 11:17:42;;;;;;;3.00;1.88;;;24.50;44.80;;;;;;5054466;28;20071;-54
2023/07/22 11:20:12;;;;;;;2.10;1.90;;;24.50;44.90;;;;;;5041622;28;20060;-56
2023/07/22 11:22:43;;;;;;;2.22;1.85;;;24.60;44.80;;;;;;5042709;28;20052;-54
2023/07/22 11:25:17;;;;;;;1.60;1.38;;;24.60;44.20;;;;;;5053891;28;20041;-55
2023/07/22 11:27:44;;;;;;;2.70;1.63;;;24.70;44.00;;;;;;5041159;28;20534;-55
2023/07/22 11:30:11;;;;;;;4.53;1.85;;;24.80;44.30;;;;;;5064971;28;20036;-54
2023/07/22 11:32:42;;;;;;;3.35;1.95;;;24.90;43.70;;;;;;5067443;28;20457;-55
2023/07/22 11:35:09;;;;;;;2.65;1.67;;;25.00;43.20;;;;;;5057372;28;20045;-54
2023/07/22 11:37:36;;;;;;;2.47;1.75;;;25.10;43.10;;;;;;5054787;28;20037;-55
2023/07/22 11:40:03;;;;;;;1.90;1.80;;;25.20;43.10;;;;;;5061518;28;20040;-56
2023/07/22 11:42:30;;;;;;;3.30;1.67;;;25.30;43.60;;;;;;5062423;28;20078;-55
2023/07/22 11:44:57;;;;;;;1.83;1.73;;;25.40;43.00;;;;;;5054233;28;20112;-55
2023/07/22 11:47:30;;;;;;;2.67;1.60;;;25.40;43.40;;;;;;5066649;28;20491;-56
2023/07/22 11:49:58;;;;;;;2.15;1.60;;;25.60;42.50;;;;;;5045750;28;20075;-56
2023/07/22 11:52:25;;;;;;;1.67;1.50;;;25.70;42.40;;;;;;5064220;28;20114;-56
2023/07/22 11:54:52;;;;;;;1.73;1.48;;;25.80;42.20;;;;;;5064082;28;20123;-55
2023/07/22 11:57:23;;;;;;;2.40;2.20;;;25.90;42.40;;;;;;5060307;28;20060;-55
2023/07/22 11:59:52;;;;;;;3.97;2.72;;;26.00;41.70;;;;;;5067462;28;20110;-55
2023/07/22 12:02:21;;;;;;;2.00;1.73;;;26.10;42.20;;;;;;5068309;28;20102;-54
2023/07/22 12:05:05;;;;;;;2.28;2.00;;;26.30;41.70;;;;;;5056813;28;20128;-55
2023/07/22 12:07:34;;;;;;;3.15;1.73;;;26.40;41.30;;;;;;5061159;28;20041;-55
2023/07/22 12:10:06;;;;;;;2.22;2.03;;;26.50;41.00;;;;;;5059384;28;20041;-54
2023/07/22 12:12:45;;;;;;;2.40;2.00;;;26.60;40.70;;;;;;5061174;28;20559;-56
2023/07/22 12:15:17;;;;;;;4.60;2.05;;;26.70;40.00;;;;;;5062454;28;20044;-55
2023/07/22 12:17:52;;;;;;;1.42;1.33;;;26.70;40.20;;;;;;5065483;28;20035;-55
2023/07/22 12:20:25;;;;;;;2.35;1.80;;;26.60;39.20;;;;;;5061712;28;20388;-55
2023/07/22 12:22:53;;;;;;;2.35;2.10;;;26.70;39.00;;;;;;5058675;28;20728;-56
2023/07/22 12:25:19;;;;;;;1.58;1.48;;;26.60;39.70;;;;;;5061940;28;20045;-54
2023/07/22 12:27:46;;;;;;;2.15;1.83;;;26.60;40.00;;;;;;5060878;28;20087;-54
2023/07/22 12:30:13;;;;;;;2.10;1.98;;;26.70;39.50;;;;;;5058610;28;20044;-55
2023/07/22 12:32:42;;;;;;;1.80;1.40;;;26.80;39.40;;;;;;5063459;28;20039;-56
2023/07/22 12:35:10;;;;;;;2.25;1.42;;;26.80;38.60;;;;;;5056770;28;20099;-55
2023/07/22 12:37:36;;;;;;;2.72;1.80;;;27.00;39.00;;;;;;5059372;28;20463;-56
2023/07/22 12:40:05;;;;;;;1.80;1.58;;;27.10;38.60;;;;;;5057846;28;20041;-54
2023/07/22 12:42:32;;;;;;;2.42;2.10;;;27.20;38.90;;;;;;5054769;28;20044;-55
2023/07/22 12:44:59;;;;;;;4.47;1.85;;;27.20;38.20;;;;;;5036372;28;20073;-55
2023/07/22 12:47:25;;;;;;;2.00;1.80;;;27.30;38.10;;;;;;5066183;28;20118;-56
2023/07/22 12:49:52;;;;;;;2.40;1.80;;;27.30;38.20;;;;;;5054147;28;20068;-56
2023/07/22 12:52:19;;;;;;;1.48;1.33;;;27.40;38.30;;;;;;5057084;28;20040;-55
2023/07/22 12:54:46;;;;;;;1.50;1.40;;;27.50;37.90;;;;;;5061051;28;20044;-55
2023/07/22 12:57:12;;;;;;;2.55;1.75;;;27.60;37.60;;;;;;5039309;28;20122;-53
2023/07/22 12:59:40;;;;;;;2.33;1.45;;;27.70;37.40;;;;;;5059950;28;20398;-54